Admiral — WCY6529 — position and weather

sailwx.info

Track history (hours):
 
Tides and Currents Weather Stations Pressure Air Temp Water Temp Dewpoint Dewpoint Depression Visibility Wind Speed Wind Dir Waves Ship Positions

Admiral

Owner: Crowley Marine Services, SEATTLE, WA. More information available from US FCC via Universal Licensing System and Coast Guard Vessel Documentation Center.

Last reported at 2016-Sep-27 23:33 UTC. Time now 2016-Sep-28 00:07 UTC.
Position N 33°44' W 118°17'.

; draft 5.3 m.

Type: Tug. MMSI: 366755020.

Date/timePositionNaut miles runAvg speedWind from/ knotsBaromVisibWave heightAir tempDewpointWater temp
2016-Sep-27 23:33N 33°44' W 118°17'5 1.2
2016-Sep-27 19:33N 33°42' W 118°12'4 0.4
2016-Sep-27 10:32N 33°44' W 118°16'3 0.3
2016-Sep-27 00:33N 33°46' W 118°13'1 0.1
2016-Sep-26 13:27N 33°45' W 118°13'0 0.2
2016-Sep-26 11:04N 33°45' W 118°13'1 0.3
2016-Sep-26 08:33N 33°45' W 118°12'4 0.6
2016-Sep-26 02:32N 33°44' W 118°17'0 0.0
2016-Sep-26 01:30N 33°44' W 118°17'1 1.3
2016-Sep-26 00:33N 33°44' W 118°15'1 0.4
2016-Sep-25 21:32N 33°44' W 118°17'3 0.8
2016-Sep-25 17:34N 33°45' W 118°13'0 0.1
2016-Sep-25 16:33N 33°45' W 118°13'5 5.1
2016-Sep-25 15:34N 33°41' W 118°10'4 4.3
2016-Sep-25 14:33N 33°44' W 118°13'0 0.2
2016-Sep-25 12:32N 33°45' W 118°13'1 1.2
2016-Sep-25 11:34N 33°43' W 118°13'4 3.5
2016-Sep-25 10:33N 33°44' W 118°17'0 0.0
2016-Sep-25 09:33N 33°44' W 118°17'0 0.0
2016-Sep-25 07:33N 33°44' W 118°17'0 0.0
2016-Sep-25 04:33N 33°44' W 118°17'3 0.7
2016-Sep-25 00:30N 33°46' W 118°14'7 3.5
2016-Sep-24 22:34N 33°40' W 118°10'5 5.2
2016-Sep-24 21:34N 33°45' W 118°13'2 0.9
2016-Sep-24 19:34N 33°44' W 118°15'0 0.2
2016-Sep-24 18:33N 33°44' W 118°15'1 1.0
2016-Sep-24 17:34N 33°44' W 118°16'3 2.9
2016-Sep-24 16:33N 33°45' W 118°13'3 1.6
2016-Sep-24 14:33N 33°44' W 118°17'0 0.0
2016-Sep-24 12:33N 33°44' W 118°17'3 1.6
2016-Sep-24 10:33N 33°45' W 118°13'0 0.1
2016-Sep-24 09:33N 33°45' W 118°13'3 0.5
2016-Sep-24 03:33N 33°44' W 118°17'0 0.0
2016-Sep-24 02:33N 33°44' W 118°17'0 0.0
2016-Sep-24 01:33N 33°44' W 118°17'3 2.6
2016-Sep-24 00:33N 33°43' W 118°14'1 0.3
2016-Sep-23 19:26N 33°44' W 118°12'1 0.5
2016-Sep-23 17:32N 33°45' W 118°13'1 1.4
2016-Sep-23 16:33N 33°46' W 118°13'0 0.3
2016-Sep-23 15:24N 33°46' W 118°13'1 0.2
2016-Sep-23 09:33N 33°45' W 118°13'3 0.5
2016-Sep-23 04:32N 33°45' W 118°16'3 0.7
2016-Sep-23 00:31N 33°43' W 118°14'0 0.0
2016-Sep-22 12:32N 33°43' W 118°15'3 0.4
2016-Sep-22 04:33N 33°45' W 118°17'0 0.4
2016-Sep-22 03:33N 33°45' W 118°16'1 0.3
2016-Sep-22 00:33N 33°44' W 118°17'1 0.2
2016-Sep-21 19:32N 33°45' W 118°16'1 0.0
2016-Sep-20 17:08N 33°44' W 118°17'2 0.5
2016-Sep-20 13:33N 33°46' W 118°15'2 0.7
2016-Sep-20 10:33N 33°44' W 118°16'1 0.6
2016-Sep-20 08:33N 33°44' W 118°17'0 0.0
2016-Sep-20 07:33N 33°44' W 118°17'0 0.0
2016-Sep-20 06:33N 33°44' W 118°17'1 0.2
2016-Sep-20 02:33N 33°44' W 118°16'1 0.1
2016-Sep-19 14:33N 33°44' W 118°17'0 0.0
2016-Sep-19 13:33N 33°44' W 118°17'0 0.0
2016-Sep-19 12:33N 33°44' W 118°17'0 0.0
2016-Sep-19 11:33N 33°44' W 118°17'0 0.0
2016-Sep-19 09:33N 33°44' W 118°17'0 0.0
2016-Sep-19 07:33N 33°44' W 118°17'0 0.0
2016-Sep-19 06:33N 33°44' W 118°17'0 0.0
2016-Sep-19 03:33N 33°44' W 118°17'0 0.0
2016-Sep-19 02:33N 33°44' W 118°17'0 0.0
2016-Sep-19 00:33N 33°44' W 118°17'1 0.1
2016-Sep-18 19:33N 33°44' W 118°16'1 0.2
2016-Sep-18 15:33N 33°44' W 118°17'0 0.0
2016-Sep-18 14:33N 33°44' W 118°17'0 0.0
2016-Sep-18 10:33N 33°44' W 118°17'0 0.0
2016-Sep-18 02:33N 33°44' W 118°17'0 0.0
2016-Sep-18 01:33N 33°44' W 118°17'2 1.5
2016-Sep-18 00:34N 33°46' W 118°16'  
Track history (hours):
 
Tides and Currents Weather Stations Pressure Air Temp Water Temp Dewpoint Dewpoint Depression Visibility Wind Speed Wind Dir Waves Ship Positions

Admiral

Owner: Crowley Marine Services, SEATTLE, WA. More information available from US FCC via Universal Licensing System and Coast Guard Vessel Documentation Center.

Last reported at 2016-Sep-27 23:33 UTC. Time now 2016-Sep-28 00:07 UTC.
Position N 33°44' W 118°17'.

; draft 5.3 m.

Type: Tug. MMSI: 366755020.

Date/timePositionNaut miles runAvg speedWind from/ knotsBaromVisibWave heightAir tempDewpointWater temp
2016-Sep-27 23:33N 33°44' W 118°17'5 1.2
2016-Sep-27 19:33N 33°42' W 118°12'4 0.4
2016-Sep-27 10:32N 33°44' W 118°16'3 0.3
2016-Sep-27 00:33N 33°46' W 118°13'1 0.1
2016-Sep-26 13:27N 33°45' W 118°13'0 0.2
2016-Sep-26 11:04N 33°45' W 118°13'1 0.3
2016-Sep-26 08:33N 33°45' W 118°12'4 0.6
2016-Sep-26 02:32N 33°44' W 118°17'0 0.0
2016-Sep-26 01:30N 33°44' W 118°17'1 1.3
2016-Sep-26 00:33N 33°44' W 118°15'1 0.4
2016-Sep-25 21:32N 33°44' W 118°17'3 0.8
2016-Sep-25 17:34N 33°45' W 118°13'0 0.1
2016-Sep-25 16:33N 33°45' W 118°13'5 5.1
2016-Sep-25 15:34N 33°41' W 118°10'4 4.3
2016-Sep-25 14:33N 33°44' W 118°13'0 0.2
2016-Sep-25 12:32N 33°45' W 118°13'1 1.2
2016-Sep-25 11:34N 33°43' W 118°13'4 3.5
2016-Sep-25 10:33N 33°44' W 118°17'0 0.0
2016-Sep-25 09:33N 33°44' W 118°17'0 0.0
2016-Sep-25 07:33N 33°44' W 118°17'0 0.0
2016-Sep-25 04:33N 33°44' W 118°17'3 0.7
2016-Sep-25 00:30N 33°46' W 118°14'7 3.5
2016-Sep-24 22:34N 33°40' W 118°10'5 5.2
2016-Sep-24 21:34N 33°45' W 118°13'2 0.9
2016-Sep-24 19:34N 33°44' W 118°15'0 0.2
2016-Sep-24 18:33N 33°44' W 118°15'1 1.0
2016-Sep-24 17:34N 33°44' W 118°16'3 2.9
2016-Sep-24 16:33N 33°45' W 118°13'3 1.6
2016-Sep-24 14:33N 33°44' W 118°17'0 0.0
2016-Sep-24 12:33N 33°44' W 118°17'3 1.6
2016-Sep-24 10:33N 33°45' W 118°13'0 0.1
2016-Sep-24 09:33N 33°45' W 118°13'3 0.5
2016-Sep-24 03:33N 33°44' W 118°17'0 0.0
2016-Sep-24 02:33N 33°44' W 118°17'0 0.0
2016-Sep-24 01:33N 33°44' W 118°17'3 2.6
2016-Sep-24 00:33N 33°43' W 118°14'1 0.3
2016-Sep-23 19:26N 33°44' W 118°12'1 0.5
2016-Sep-23 17:32N 33°45' W 118°13'1 1.4
2016-Sep-23 16:33N 33°46' W 118°13'0 0.3
2016-Sep-23 15:24N 33°46' W 118°13'1 0.2
2016-Sep-23 09:33N 33°45' W 118°13'3 0.5
2016-Sep-23 04:32N 33°45' W 118°16'3 0.7
2016-Sep-23 00:31N 33°43' W 118°14'0 0.0
2016-Sep-22 12:32N 33°43' W 118°15'3 0.4
2016-Sep-22 04:33N 33°45' W 118°17'0 0.4
2016-Sep-22 03:33N 33°45' W 118°16'1 0.3
2016-Sep-22 00:33N 33°44' W 118°17'1 0.2
2016-Sep-21 19:32N 33°45' W 118°16'1 0.0
2016-Sep-20 17:08N 33°44' W 118°17'2 0.5
2016-Sep-20 13:33N 33°46' W 118°15'2 0.7
2016-Sep-20 10:33N 33°44' W 118°16'1 0.6
2016-Sep-20 08:33N 33°44' W 118°17'0 0.0
2016-Sep-20 07:33N 33°44' W 118°17'0 0.0
2016-Sep-20 06:33N 33°44' W 118°17'1 0.2
2016-Sep-20 02:33N 33°44' W 118°16'1 0.1
2016-Sep-19 14:33N 33°44' W 118°17'0 0.0
2016-Sep-19 13:33N 33°44' W 118°17'0 0.0
2016-Sep-19 12:33N 33°44' W 118°17'0 0.0
2016-Sep-19 11:33N 33°44' W 118°17'0 0.0
2016-Sep-19 09:33N 33°44' W 118°17'0 0.0
2016-Sep-19 07:33N 33°44' W 118°17'0 0.0
2016-Sep-19 06:33N 33°44' W 118°17'0 0.0
2016-Sep-19 03:33N 33°44' W 118°17'0 0.0
2016-Sep-19 02:33N 33°44' W 118°17'0 0.0
2016-Sep-19 00:33N 33°44' W 118°17'1 0.1
2016-Sep-18 19:33N 33°44' W 118°16'1 0.2
2016-Sep-18 15:33N 33°44' W 118°17'0 0.0
2016-Sep-18 14:33N 33°44' W 118°17'0 0.0
2016-Sep-18 10:33N 33°44' W 118°17'0 0.0
2016-Sep-18 02:33N 33°44' W 118°17'0 0.0
2016-Sep-18 01:33N 33°44' W 118°17'2 1.5
2016-Sep-18 00:34N 33°46' W 118°16'  

Dump ship's entire track history